sensor_id;sensor_type;location;lat;lon;timestamp;noise_LAeq;noise_LA_min;noise_LA_max;noise_LA01;noise_LA95
67900;Laerm;54700;51.796;10.956;2022-10-03T00:02:19;45.23;33.46;59.04;;
67900;Laerm;54700;51.796;10.956;2022-10-03T00:05:13;37.66;30.86;49.79;;
67900;Laerm;54700;51.796;10.956;2022-10-03T00:07:57;37.78;31.89;47.10;;
67900;Laerm;54700;51.796;10.956;2022-10-03T00:10:35;54.15;33.25;71.45;;
67900;Laerm;54700;51.796;10.956;2022-10-03T00:13:19;44.72;33.43;62.10;;
67900;Laerm;54700;51.796;10.956;2022-10-03T00:15:59;46.52;32.62;64.17;;
67900;Laerm;54700;51.796;10.956;2022-10-03T00:18:33;51.10;31.26;66.20;;
67900;Laerm;54700;51.796;10.956;2022-10-03T00:21:13;49.55;31.31;66.37;;
67900;Laerm;54700;51.796;10.956;2022-10-03T00:23:48;38.77;31.01;54.57;;
67900;Laerm;54700;51.796;10.956;2022-10-03T00:26:27;39.54;32.11;51.23;;
67900;Laerm;54700;51.796;10.956;2022-10-03T00:29:19;50.88;31.79;68.56;;
67900;Laerm;54700;51.796;10.956;2022-10-03T00:31:55;42.33;31.24;61.63;;
67900;Laerm;54700;51.796;10.956;2022-10-03T00:34:38;45.80;34.23;58.69;;
67900;Laerm;54700;51.796;10.956;2022-10-03T00:37:20;40.26;31.22;50.89;;
67900;Laerm;54700;51.796;10.956;2022-10-03T00:43:04;44.54;33.87;64.29;;
67900;Laerm;54700;51.796;10.956;2022-10-03T00:45:49;46.16;32.41;64.92;;
67900;Laerm;54700;51.796;10.956;2022-10-03T00:51:30;38.78;31.35;52.98;;
67900;Laerm;54700;51.796;10.956;2022-10-03T00:54:14;53.37;30.07;71.92;;
67900;Laerm;54700;51.796;10.956;2022-10-03T00:56:56;38.28;30.54;49.27;;
67900;Laerm;54700;51.796;10.956;2022-10-03T00:59:46;49.92;29.57;67.17;;
67900;Laerm;54700;51.796;10.956;2022-10-03T01:02:34;49.62;29.12;67.16;;
67900;Laerm;54700;51.796;10.956;2022-10-03T01:05:26;43.55;30.79;61.98;;
67900;Laerm;54700;51.796;10.956;2022-10-03T01:08:18;43.24;32.73;63.18;;
67900;Laerm;54700;51.796;10.956;2022-10-03T01:11:01;40.88;31.87;57.99;;
67900;Laerm;54700;51.796;10.956;2022-10-03T01:13:43;40.93;30.63;59.72;;
67900;Laerm;54700;51.796;10.956;2022-10-03T01:16:21;38.82;30.09;54.14;;
67900;Laerm;54700;51.796;10.956;2022-10-03T01:19:02;51.87;31.05;67.85;;
67900;Laerm;54700;51.796;10.956;2022-10-03T01:21:41;38.93;32.32;47.54;;
67900;Laerm;54700;51.796;10.956;2022-10-03T01:24:37;37.75;31.68;48.05;;
67900;Laerm;54700;51.796;10.956;2022-10-03T01:27:13;38.72;29.87;50.59;;
67900;Laerm;54700;51.796;10.956;2022-10-03T01:29:48;37.57;31.55;47.97;;
67900;Laerm;54700;51.796;10.956;2022-10-03T01:32:39;31.64;28.64;41.73;;
67900;Laerm;54700;51.796;10.956;2022-10-03T01:35:21;32.33;29.19;42.40;;
67900;Laerm;54700;51.796;10.956;2022-10-03T01:38:00;35.62;29.58;47.05;;
67900;Laerm;54700;51.796;10.956;2022-10-03T01:40:34;38.80;29.78;61.93;;
67900;Laerm;54700;51.796;10.956;2022-10-03T01:43:14;38.77;31.32;45.97;;
67900;Laerm;54700;51.796;10.956;2022-10-03T01:45:57;42.23;30.49;61.18;;
67900;Laerm;54700;51.796;10.956;2022-10-03T01:48:36;52.47;32.89;69.87;;
67900;Laerm;54700;51.796;10.956;2022-10-03T01:51:09;50.58;31.53;68.70;;
67900;Laerm;54700;51.796;10.956;2022-10-03T01:53:58;36.17;30.25;47.66;;
67900;Laerm;54700;51.796;10.956;2022-10-03T01:56:32;50.09;31.34;66.23;;
67900;Laerm;54700;51.796;10.956;2022-10-03T01:59:07;42.56;32.54;55.43;;
67900;Laerm;54700;51.796;10.956;2022-10-03T02:01:48;37.16;30.96;44.90;;
67900;Laerm;54700;51.796;10.956;2022-10-03T02:04:27;50.32;30.52;66.05;;
67900;Laerm;54700;51.796;10.956;2022-10-03T02:07:03;54.79;31.81;70.45;;
67900;Laerm;54700;51.796;10.956;2022-10-03T02:09:38;41.21;30.92;55.80;;
67900;Laerm;54700;51.796;10.956;2022-10-03T02:12:13;36.92;30.57;50.83;;
67900;Laerm;54700;51.796;10.956;2022-10-03T02:14:55;54.37;33.04;69.28;;
67900;Laerm;54700;51.796;10.956;2022-10-03T02:17:41;40.18;32.24;54.98;;
67900;Laerm;54700;51.796;10.956;2022-10-03T02:20:17;49.83;33.22;67.95;;
67900;Laerm;54700;51.796;10.956;2022-10-03T02:22:50;42.91;32.76;60.68;;
67900;Laerm;54700;51.796;10.956;2022-10-03T02:25:35;54.74;32.34;70.32;;
67900;Laerm;54700;51.796;10.956;2022-10-03T02:28:34;54.75;33.50;72.52;;
67900;Laerm;54700;51.796;10.956;2022-10-03T02:31:44;52.31;30.61;69.71;;
67900;Laerm;54700;51.796;10.956;2022-10-03T02:34:46;37.89;29.80;55.17;;
67900;Laerm;54700;51.796;10.956;2022-10-03T02:37:39;41.92;30.20;59.65;;
67900;Laerm;54700;51.796;10.956;2022-10-03T02:40:50;33.96;29.61;56.12;;
67900;Laerm;54700;51.796;10.956;2022-10-03T02:43:50;34.71;29.54;45.50;;
67900;Laerm;54700;51.796;10.956;2022-10-03T02:58:49;34.30;30.34;46.22;;
67900;Laerm;54700;51.796;10.956;2022-10-03T03:07:48;54.50;29.63;69.63;;
67900;Laerm;54700;51.796;10.956;2022-10-03T03:19:35;52.18;31.27;69.58;;
67900;Laerm;54700;51.796;10.956;2022-10-03T03:22:19;54.94;32.67;69.27;;
67900;Laerm;54700;51.796;10.956;2022-10-03T03:25:12;51.31;32.08;67.39;;
67900;Laerm;54700;51.796;10.956;2022-10-03T03:27:55;58.34;33.78;69.82;;
67900;Laerm;54700;51.796;10.956;2022-10-03T03:30:34;57.47;33.60;71.13;;
67900;Laerm;54700;51.796;10.956;2022-10-03T03:33:11;47.71;32.13;62.80;;
67900;Laerm;54700;51.796;10.956;2022-10-03T03:35:53;36.86;30.29;49.82;;
67900;Laerm;54700;51.796;10.956;2022-10-03T03:38:31;55.19;31.88;70.07;;
67900;Laerm;54700;51.796;10.956;2022-10-03T03:41:16;48.89;30.09;64.39;;
67900;Laerm;54700;51.796;10.956;2022-10-03T03:44:28;56.07;30.86;70.91;;
67900;Laerm;54700;51.796;10.956;2022-10-03T03:47:18;56.67;32.76;72.15;;
67900;Laerm;54700;51.796;10.956;2022-10-03T03:50:11;34.41;30.20;45.52;;
67900;Laerm;54700;51.796;10.956;2022-10-03T03:52:58;53.94;30.42;71.30;;
67900;Laerm;54700;51.796;10.956;2022-10-03T03:55:41;53.00;32.32;69.80;;
67900;Laerm;54700;51.796;10.956;2022-10-03T03:58:26;49.44;29.66;66.19;;
67900;Laerm;54700;51.796;10.956;2022-10-03T04:01:19;51.17;31.95;65.34;;
67900;Laerm;54700;51.796;10.956;2022-10-03T04:03:58;39.82;31.76;56.30;;
67900;Laerm;54700;51.796;10.956;2022-10-03T04:06:42;56.31;33.22;70.14;;
67900;Laerm;54700;51.796;10.956;2022-10-03T04:09:30;37.77;31.50;49.62;;
67900;Laerm;54700;51.796;10.956;2022-10-03T04:12:20;48.15;31.90;62.58;;
67900;Laerm;54700;51.796;10.956;2022-10-03T04:15:02;53.18;32.42;69.17;;
67900;Laerm;54700;51.796;10.956;2022-10-03T04:17:46;50.28;31.85;66.47;;
67900;Laerm;54700;51.796;10.956;2022-10-03T04:20:48;55.43;32.89;69.63;;
67900;Laerm;54700;51.796;10.956;2022-10-03T04:23:36;48.90;32.93;64.72;;
67900;Laerm;54700;51.796;10.956;2022-10-03T04:26:20;50.91;32.62;68.50;;
67900;Laerm;54700;51.796;10.956;2022-10-03T04:29:15;53.84;31.08;70.66;;
67900;Laerm;54700;51.796;10.956;2022-10-03T04:32:01;55.71;32.35;68.90;;
67900;Laerm;54700;51.796;10.956;2022-10-03T04:34:51;56.24;30.35;69.95;;
67900;Laerm;54700;51.796;10.956;2022-10-03T04:37:27;53.13;32.51;69.06;;
67900;Laerm;54700;51.796;10.956;2022-10-03T04:40:08;57.97;33.37;71.79;;
67900;Laerm;54700;51.796;10.956;2022-10-03T04:42:48;51.14;31.52;64.78;;
67900;Laerm;54700;51.796;10.956;2022-10-03T04:45:32;39.92;31.20;65.11;;
67900;Laerm;54700;51.796;10.956;2022-10-03T04:48:21;49.90;31.38;68.04;;
67900;Laerm;54700;51.796;10.956;2022-10-03T04:51:06;55.78;30.66;72.93;;
67900;Laerm;54700;51.796;10.956;2022-10-03T04:53:43;52.65;31.65;70.46;;
67900;Laerm;54700;51.796;10.956;2022-10-03T04:56:28;54.47;31.42;68.32;;
67900;Laerm;54700;51.796;10.956;2022-10-03T04:59:06;51.29;32.77;67.89;;
67900;Laerm;54700;51.796;10.956;2022-10-03T05:01:41;54.13;34.63;70.70;;
67900;Laerm;54700;51.796;10.956;2022-10-03T05:04:21;57.29;32.37;71.94;;
67900;Laerm;54700;51.796;10.956;2022-10-03T05:06:59;54.53;34.66;68.77;;
67900;Laerm;54700;51.796;10.956;2022-10-03T05:09:36;55.51;33.72;70.88;;
67900;Laerm;54700;51.796;10.956;2022-10-03T05:12:12;43.90;34.08;62.09;;
67900;Laerm;54700;51.796;10.956;2022-10-03T05:14:55;56.14;35.12;71.86;;
67900;Laerm;54700;51.796;10.956;2022-10-03T05:17:32;52.98;32.97;71.31;;
67900;Laerm;54700;51.796;10.956;2022-10-03T05:20:23;54.14;34.48;67.96;;
67900;Laerm;54700;51.796;10.956;2022-10-03T05:23:03;54.86;34.53;71.96;;
67900;Laerm;54700;51.796;10.956;2022-10-03T05:25:56;56.33;34.64;70.67;;
67900;Laerm;54700;51.796;10.956;2022-10-03T05:28:34;51.46;33.40;67.36;;
67900;Laerm;54700;51.796;10.956;2022-10-03T05:34:09;52.23;33.69;68.26;;
67900;Laerm;54700;51.796;10.956;2022-10-03T05:37:03;57.86;36.38;72.63;;
67900;Laerm;54700;51.796;10.956;2022-10-03T05:39:42;56.88;35.27;70.15;;
67900;Laerm;54700;51.796;10.956;2022-10-03T05:42:34;57.28;34.47;74.47;;
67900;Laerm;54700;51.796;10.956;2022-10-03T05:45:19;57.93;35.84;72.69;;
67900;Laerm;54700;51.796;10.956;2022-10-03T05:47:51;57.72;36.43;71.29;;
67900;Laerm;54700;51.796;10.956;2022-10-03T05:50:34;55.07;34.53;70.80;;
67900;Laerm;54700;51.796;10.956;2022-10-03T05:53:30;52.09;34.13;67.03;;
67900;Laerm;54700;51.796;10.956;2022-10-03T05:56:07;58.40;34.77;74.65;;
67900;Laerm;54700;51.796;10.956;2022-10-03T05:59:12;59.24;37.21;74.07;;
67900;Laerm;54700;51.796;10.956;2022-10-03T06:02:12;58.06;37.77;70.59;;
67900;Laerm;54700;51.796;10.956;2022-10-03T06:05:17;54.70;34.27;69.32;;
67900;Laerm;54700;51.796;10.956;2022-10-03T06:08:09;58.37;35.32;72.35;;
67900;Laerm;54700;51.796;10.956;2022-10-03T06:10:46;60.68;34.93;71.22;;
67900;Laerm;54700;51.796;10.956;2022-10-03T06:13:31;59.48;39.31;74.16;;
67900;Laerm;54700;51.796;10.956;2022-10-03T06:16:18;49.06;38.38;64.01;;
67900;Laerm;54700;51.796;10.956;2022-10-03T06:19:26;54.99;35.23;70.79;;
67900;Laerm;54700;51.796;10.956;2022-10-03T06:22:25;59.90;37.37;71.33;;
67900;Laerm;54700;51.796;10.956;2022-10-03T06:28:39;60.17;37.16;74.17;;
67900;Laerm;54700;51.796;10.956;2022-10-03T06:31:40;61.70;38.67;74.45;;
67900;Laerm;54700;51.796;10.956;2022-10-03T06:34:32;59.42;36.00;71.22;;
67900;Laerm;54700;51.796;10.956;2022-10-03T06:37:36;61.79;42.27;72.48;;
67900;Laerm;54700;51.796;10.956;2022-10-03T06:41:07;60.77;38.42;72.36;;
67900;Laerm;54700;51.796;10.956;2022-10-03T06:47:00;60.00;36.94;71.42;;
67900;Laerm;54700;51.796;10.956;2022-10-03T06:49:43;60.35;41.03;71.23;;
67900;Laerm;54700;51.796;10.956;2022-10-03T06:52:47;58.58;40.86;71.74;;
67900;Laerm;54700;51.796;10.956;2022-10-03T07:01:47;61.63;42.00;72.87;;
67900;Laerm;54700;51.796;10.956;2022-10-03T07:10:45;60.39;38.46;72.99;;
67900;Laerm;54700;51.796;10.956;2022-10-03T07:13:40;60.68;38.34;70.93;;
67900;Laerm;54700;51.796;10.956;2022-10-03T07:19:39;58.01;37.42;71.25;;
67900;Laerm;54700;51.796;10.956;2022-10-03T07:22:41;58.55;34.45;71.55;;
67900;Laerm;54700;51.796;10.956;2022-10-03T07:25:34;61.35;37.13;75.83;;
67900;Laerm;54700;51.796;10.956;2022-10-03T07:31:05;58.85;36.84;71.20;;
67900;Laerm;54700;51.796;10.956;2022-10-03T07:34:05;60.72;36.91;72.78;;
67900;Laerm;54700;51.796;10.956;2022-10-03T07:36:53;60.25;40.85;70.27;;
67900;Laerm;54700;51.796;10.956;2022-10-03T07:46:09;61.75;40.19;74.46;;
67900;Laerm;54700;51.796;10.956;2022-10-03T07:48:55;59.32;38.05;70.78;;
67900;Laerm;54700;51.796;10.956;2022-10-03T07:51:35;61.02;40.39;71.46;;
67900;Laerm;54700;51.796;10.956;2022-10-03T07:54:21;61.33;39.20;70.98;;
67900;Laerm;54700;51.796;10.956;2022-10-03T07:57:19;60.93;38.53;72.76;;
67900;Laerm;54700;51.796;10.956;2022-10-03T08:00:04;60.32;38.44;70.98;;
67900;Laerm;54700;51.796;10.956;2022-10-03T08:02:46;62.42;43.09;71.52;;
67900;Laerm;54700;51.796;10.956;2022-10-03T08:05:26;61.86;41.64;72.08;;
67900;Laerm;54700;51.796;10.956;2022-10-03T08:08:17;62.06;39.59;74.13;;
67900;Laerm;54700;51.796;10.956;2022-10-03T08:11:13;61.09;38.60;71.41;;
67900;Laerm;54700;51.796;10.956;2022-10-03T08:13:59;57.55;40.42;70.89;;
67900;Laerm;54700;51.796;10.956;2022-10-03T08:19:35;62.11;42.67;72.45;;
67900;Laerm;54700;51.796;10.956;2022-10-03T08:22:13;61.24;44.00;70.58;;
67900;Laerm;54700;51.796;10.956;2022-10-03T08:24:53;59.43;39.86;71.15;;
67900;Laerm;54700;51.796;10.956;2022-10-03T08:27:43;57.64;40.47;71.45;;
67900;Laerm;54700;51.796;10.956;2022-10-03T08:30:20;63.74;41.11;74.12;;
67900;Laerm;54700;51.796;10.956;2022-10-03T08:32:57;60.14;41.25;70.55;;
67900;Laerm;54700;51.796;10.956;2022-10-03T08:35:53;65.66;40.85;78.80;;
67900;Laerm;54700;51.796;10.956;2022-10-03T08:38:51;60.63;41.36;71.02;;
67900;Laerm;54700;51.796;10.956;2022-10-03T08:41:59;60.06;40.96;71.08;;
67900;Laerm;54700;51.796;10.956;2022-10-03T08:45:16;62.79;41.44;72.49;;
67900;Laerm;54700;51.796;10.956;2022-10-03T08:51:31;57.72;38.63;70.80;;
67900;Laerm;54700;51.796;10.956;2022-10-03T08:57:14;61.00;39.71;72.84;;
67900;Laerm;54700;51.796;10.956;2022-10-03T09:00:13;62.67;41.14;73.86;;
67900;Laerm;54700;51.796;10.956;2022-10-03T09:03:23;62.62;40.21;72.25;;
67900;Laerm;54700;51.796;10.956;2022-10-03T09:06:39;62.90;37.00;77.71;;
67900;Laerm;54700;51.796;10.956;2022-10-03T09:09:43;63.68;41.25;80.43;;
67900;Laerm;54700;51.796;10.956;2022-10-03T09:12:31;62.91;45.00;79.50;;
67900;Laerm;54700;51.796;10.956;2022-10-03T09:15:25;61.01;41.12;72.69;;
67900;Laerm;54700;51.796;10.956;2022-10-03T09:18:29;66.30;43.80;78.57;;
67900;Laerm;54700;51.796;10.956;2022-10-03T09:27:28;60.16;38.25;73.53;;
67900;Laerm;54700;51.796;10.956;2022-10-03T09:30:20;57.91;40.89;68.85;;
67900;Laerm;54700;51.796;10.956;2022-10-03T09:33:18;59.27;40.10;71.43;;
67900;Laerm;54700;51.796;10.956;2022-10-03T09:39:18;59.27;42.11;70.53;;
67900;Laerm;54700;51.796;10.956;2022-10-03T09:42:32;60.57;42.12;71.40;;
67900;Laerm;54700;51.796;10.956;2022-10-03T09:45:35;62.81;45.65;71.02;;
67900;Laerm;54700;51.796;10.956;2022-10-03T09:48:33;59.04;41.02;85.96;;
67900;Laerm;54700;51.796;10.956;2022-10-03T09:51:30;61.18;43.82;71.30;;
67900;Laerm;54700;51.796;10.956;2022-10-03T09:57:48;60.21;42.10;69.48;;
67900;Laerm;54700;51.796;10.956;2022-10-03T10:00:21;61.56;41.80;70.62;;
67900;Laerm;54700;51.796;10.956;2022-10-03T10:03:13;60.90;39.84;76.22;;
67900;Laerm;54700;51.796;10.956;2022-10-03T10:06:22;58.11;41.25;69.43;;
67900;Laerm;54700;51.796;10.956;2022-10-03T10:09:19;59.36;43.62;68.74;;
67900;Laerm;54700;51.796;10.956;2022-10-03T10:15:30;61.73;41.03;72.65;;
67900;Laerm;54700;51.796;10.956;2022-10-03T10:18:42;64.54;42.33;74.90;;
67900;Laerm;54700;51.796;10.956;2022-10-03T10:21:41;62.03;41.44;73.40;;
67900;Laerm;54700;51.796;10.956;2022-10-03T10:27:42;62.04;42.11;72.05;;
67900;Laerm;54700;51.796;10.956;2022-10-03T10:30:25;62.65;41.45;73.60;;
67900;Laerm;54700;51.796;10.956;2022-10-03T10:33:41;62.64;43.21;71.42;;
67900;Laerm;54700;51.796;10.956;2022-10-03T10:36:53;61.53;39.44;70.72;;
67900;Laerm;54700;51.796;10.956;2022-10-03T10:39:51;61.44;36.63;74.46;;
67900;Laerm;54700;51.796;10.956;2022-10-03T10:42:55;62.53;42.72;76.71;;
67900;Laerm;54700;51.796;10.956;2022-10-03T10:45:51;59.78;42.08;70.02;;
67900;Laerm;54700;51.796;10.956;2022-10-03T10:54:53;60.09;42.20;75.42;;
67900;Laerm;54700;51.796;10.956;2022-10-03T10:57:50;62.23;38.03;79.85;;
67900;Laerm;54700;51.796;10.956;2022-10-03T11:00:38;63.45;37.54;78.23;;
67900;Laerm;54700;51.796;10.956;2022-10-03T11:07:03;62.47;36.53;77.47;;
67900;Laerm;54700;51.796;10.956;2022-10-03T11:10:06;59.42;39.23;69.83;;
67900;Laerm;54700;51.796;10.956;2022-10-03T11:34:44;60.76;38.83;71.27;;
67900;Laerm;54700;51.796;10.956;2022-10-03T11:37:36;58.04;36.77;69.86;;
67900;Laerm;54700;51.796;10.956;2022-10-03T11:40:24;60.93;40.94;71.22;;
67900;Laerm;54700;51.796;10.956;2022-10-03T11:43:12;59.78;38.07;72.72;;
67900;Laerm;54700;51.796;10.956;2022-10-03T11:45:47;61.11;43.01;77.37;;
67900;Laerm;54700;51.796;10.956;2022-10-03T11:48:35;62.64;43.31;73.42;;
67900;Laerm;54700;51.796;10.956;2022-10-03T11:51:09;62.78;45.45;80.16;;
67900;Laerm;54700;51.796;10.956;2022-10-03T11:53:44;63.64;45.31;72.62;;
67900;Laerm;54700;51.796;10.956;2022-10-03T11:56:33;59.78;39.87;71.99;;
67900;Laerm;54700;51.796;10.956;2022-10-03T12:02:06;62.71;39.03;74.63;;
67900;Laerm;54700;51.796;10.956;2022-10-03T12:04:45;60.04;38.98;70.58;;
67900;Laerm;54700;51.796;10.956;2022-10-03T12:07:29;59.04;39.09;69.48;;
67900;Laerm;54700;51.796;10.956;2022-10-03T12:10:31;57.82;38.80;69.46;;
67900;Laerm;54700;51.796;10.956;2022-10-03T12:13:04;61.48;43.22;73.77;;
67900;Laerm;54700;51.796;10.956;2022-10-03T12:15:38;61.71;41.66;74.58;;
67900;Laerm;54700;51.796;10.956;2022-10-03T12:18:12;62.28;40.49;70.71;;
67900;Laerm;54700;51.796;10.956;2022-10-03T12:21:06;60.55;43.25;70.08;;
67900;Laerm;54700;51.796;10.956;2022-10-03T12:23:57;64.48;45.82;73.60;;
67900;Laerm;54700;51.796;10.956;2022-10-03T12:26:37;61.54;39.91;74.22;;
67900;Laerm;54700;51.796;10.956;2022-10-03T12:29:10;60.76;39.40;70.54;;
67900;Laerm;54700;51.796;10.956;2022-10-03T12:31:41;61.96;39.17;71.40;;
67900;Laerm;54700;51.796;10.956;2022-10-03T12:34:33;62.51;40.77;72.73;;
67900;Laerm;54700;51.796;10.956;2022-10-03T12:40:02;57.61;39.41;71.27;;
67900;Laerm;54700;51.796;10.956;2022-10-03T12:42:37;59.64;39.15;71.70;;
67900;Laerm;54700;51.796;10.956;2022-10-03T12:45:22;62.18;39.79;73.81;;
67900;Laerm;54700;51.796;10.956;2022-10-03T12:48:11;61.14;39.96;69.05;;
67900;Laerm;54700;51.796;10.956;2022-10-03T12:50:45;60.29;40.32;72.12;;
67900;Laerm;54700;51.796;10.956;2022-10-03T12:53:24;62.09;43.77;73.52;;
67900;Laerm;54700;51.796;10.956;2022-10-03T12:56:10;63.52;45.67;72.53;;
67900;Laerm;54700;51.796;10.956;2022-10-03T12:58:49;61.94;40.22;84.87;;
67900;Laerm;54700;51.796;10.956;2022-10-03T13:01:23;60.35;40.03;71.47;;
67900;Laerm;54700;51.796;10.956;2022-10-03T13:03:54;64.60;43.41;86.35;;
67900;Laerm;54700;51.796;10.956;2022-10-03T13:06:33;60.48;41.42;72.20;;
67900;Laerm;54700;51.796;10.956;2022-10-03T13:09:18;61.96;41.66;75.22;;
67900;Laerm;54700;51.796;10.956;2022-10-03T13:11:59;61.27;40.29;71.56;;
67900;Laerm;54700;51.796;10.956;2022-10-03T13:17:35;62.43;40.64;71.35;;
67900;Laerm;54700;51.796;10.956;2022-10-03T13:20:11;61.26;38.16;70.52;;
67900;Laerm;54700;51.796;10.956;2022-10-03T13:22:44;62.56;44.03;73.04;;
67900;Laerm;54700;51.796;10.956;2022-10-03T13:25:18;63.98;38.65;87.68;;
67900;Laerm;54700;51.796;10.956;2022-10-03T13:27:52;61.99;42.41;75.46;;
67900;Laerm;54700;51.796;10.956;2022-10-03T13:30:28;60.23;39.94;71.78;;
67900;Laerm;54700;51.796;10.956;2022-10-03T13:32:59;60.03;40.23;70.96;;
67900;Laerm;54700;51.796;10.956;2022-10-03T13:35:37;62.27;40.80;70.20;;
67900;Laerm;54700;51.796;10.956;2022-10-03T13:38:42;62.96;43.30;74.28;;
67900;Laerm;54700;51.796;10.956;2022-10-03T13:41:20;60.19;38.69;70.99;;
67900;Laerm;54700;51.796;10.956;2022-10-03T13:43:58;61.95;38.24;79.77;;
67900;Laerm;54700;51.796;10.956;2022-10-03T13:46:32;59.87;39.95;69.89;;
67900;Laerm;54700;51.796;10.956;2022-10-03T13:49:10;59.42;42.13;70.01;;
67900;Laerm;54700;51.796;10.956;2022-10-03T13:51:48;64.86;40.50;85.40;;
67900;Laerm;54700;51.796;10.956;2022-10-03T13:54:24;59.17;38.17;71.06;;
67900;Laerm;54700;51.796;10.956;2022-10-03T13:57:06;60.01;37.99;72.29;;
67900;Laerm;54700;51.796;10.956;2022-10-03T13:59:50;61.99;39.65;74.87;;
67900;Laerm;54700;51.796;10.956;2022-10-03T14:11:33;57.86;40.03;69.34;;
67900;Laerm;54700;51.796;10.956;2022-10-03T14:14:26;63.01;39.34;75.94;;
67900;Laerm;54700;51.796;10.956;2022-10-03T14:17:04;60.54;40.17;71.11;;
67900;Laerm;54700;51.796;10.956;2022-10-03T14:19:41;62.17;45.52;70.91;;
67900;Laerm;54700;51.796;10.956;2022-10-03T14:22:20;61.07;41.98;71.23;;
67900;Laerm;54700;51.796;10.956;2022-10-03T14:25:02;62.89;40.99;74.69;;
67900;Laerm;54700;51.796;10.956;2022-10-03T14:27:39;61.76;39.97;70.52;;
67900;Laerm;54700;51.796;10.956;2022-10-03T14:30:16;59.98;39.25;70.00;;
67900;Laerm;54700;51.796;10.956;2022-10-03T14:33:03;61.04;41.08;71.76;;
67900;Laerm;54700;51.796;10.956;2022-10-03T14:35:40;59.34;40.65;72.62;;
67900;Laerm;54700;51.796;10.956;2022-10-03T14:38:32;58.37;38.92;70.87;;
67900;Laerm;54700;51.796;10.956;2022-10-03T14:41:24;62.47;42.43;74.36;;
67900;Laerm;54700;51.796;10.956;2022-10-03T14:43:59;57.18;38.42;68.25;;
67900;Laerm;54700;51.796;10.956;2022-10-03T14:46:30;58.11;37.10;68.83;;
67900;Laerm;54700;51.796;10.956;2022-10-03T14:49:16;62.38;46.05;72.25;;
67900;Laerm;54700;51.796;10.956;2022-10-03T14:51:48;61.81;39.28;70.30;;
67900;Laerm;54700;51.796;10.956;2022-10-03T14:54:19;60.71;36.89;69.95;;
67900;Laerm;54700;51.796;10.956;2022-10-03T14:56:48;60.34;38.13;68.99;;
67900;Laerm;54700;51.796;10.956;2022-10-03T14:59:19;60.87;38.81;70.18;;
67900;Laerm;54700;51.796;10.956;2022-10-03T15:01:48;60.11;37.58;70.61;;
67900;Laerm;54700;51.796;10.956;2022-10-03T15:04:28;63.36;41.46;72.36;;
67900;Laerm;54700;51.796;10.956;2022-10-03T15:07:00;61.08;40.04;70.50;;
67900;Laerm;54700;51.796;10.956;2022-10-03T15:09:31;62.26;39.86;71.09;;
67900;Laerm;54700;51.796;10.956;2022-10-03T15:12:03;60.90;40.37;70.29;;
67900;Laerm;54700;51.796;10.956;2022-10-03T15:14:34;62.25;41.76;73.33;;
67900;Laerm;54700;51.796;10.956;2022-10-03T15:17:04;60.00;39.45;71.69;;
67900;Laerm;54700;51.796;10.956;2022-10-03T15:19:38;61.40;38.03;71.94;;
67900;Laerm;54700;51.796;10.956;2022-10-03T15:22:21;59.85;39.32;70.13;;
67900;Laerm;54700;51.796;10.956;2022-10-03T15:24:53;60.99;38.15;70.90;;
67900;Laerm;54700;51.796;10.956;2022-10-03T15:27:22;62.60;37.43;70.37;;
67900;Laerm;54700;51.796;10.956;2022-10-03T15:29:55;62.29;38.57;70.84;;
67900;Laerm;54700;51.796;10.956;2022-10-03T15:32:24;61.31;37.13;70.80;;
67900;Laerm;54700;51.796;10.956;2022-10-03T15:34:58;62.88;41.61;71.28;;
67900;Laerm;54700;51.796;10.956;2022-10-03T15:37:29;62.08;41.08;72.37;;
67900;Laerm;54700;51.796;10.956;2022-10-03T15:40:06;57.72;36.75;69.81;;
67900;Laerm;54700;51.796;10.956;2022-10-03T15:42:48;59.00;35.99;70.82;;
67900;Laerm;54700;51.796;10.956;2022-10-03T15:45:22;60.34;37.67;71.44;;
67900;Laerm;54700;51.796;10.956;2022-10-03T15:47:54;60.12;38.64;70.25;;
67900;Laerm;54700;51.796;10.956;2022-10-03T15:50:25;59.59;40.22;69.96;;
67900;Laerm;54700;51.796;10.956;2022-10-03T15:52:55;61.12;38.75;71.24;;
67900;Laerm;54700;51.796;10.956;2022-10-03T15:55:25;61.42;38.80;72.24;;
67900;Laerm;54700;51.796;10.956;2022-10-03T15:57:59;61.95;39.39;75.37;;
67900;Laerm;54700;51.796;10.956;2022-10-03T16:00:35;63.35;41.91;71.93;;
67900;Laerm;54700;51.796;10.956;2022-10-03T16:03:12;58.67;39.09;73.38;;
67900;Laerm;54700;51.796;10.956;2022-10-03T16:05:52;62.25;42.31;70.55;;
67900;Laerm;54700;51.796;10.956;2022-10-03T16:08:26;61.60;40.21;75.23;;
67900;Laerm;54700;51.796;10.956;2022-10-03T16:11:06;60.52;38.51;71.33;;
67900;Laerm;54700;51.796;10.956;2022-10-03T16:13:41;63.61;44.04;73.09;;
67900;Laerm;54700;51.796;10.956;2022-10-03T16:16:14;61.81;35.79;71.73;;
67900;Laerm;54700;51.796;10.956;2022-10-03T16:18:48;59.48;38.20;69.56;;
67900;Laerm;54700;51.796;10.956;2022-10-03T16:21:27;62.75;38.13;72.07;;
67900;Laerm;54700;51.796;10.956;2022-10-03T16:23:58;60.46;39.36;72.78;;
67900;Laerm;54700;51.796;10.956;2022-10-03T16:26:33;61.31;38.75;75.69;;
67900;Laerm;54700;51.796;10.956;2022-10-03T16:29:12;58.93;36.67;68.86;;
67900;Laerm;54700;51.796;10.956;2022-10-03T16:31:50;61.50;39.58;74.29;;
67900;Laerm;54700;51.796;10.956;2022-10-03T16:34:23;57.43;34.77;70.41;;
67900;Laerm;54700;51.796;10.956;2022-10-03T16:36:55;59.19;37.55;71.92;;
67900;Laerm;54700;51.796;10.956;2022-10-03T16:39:26;58.58;36.34;69.22;;
67900;Laerm;54700;51.796;10.956;2022-10-03T16:41:54;57.10;39.49;68.08;;
67900;Laerm;54700;51.796;10.956;2022-10-03T16:44:26;62.29;41.74;72.72;;
67900;Laerm;54700;51.796;10.956;2022-10-03T16:47:00;58.61;36.47;68.35;;
67900;Laerm;54700;51.796;10.956;2022-10-03T16:49:36;59.34;37.20;70.59;;
67900;Laerm;54700;51.796;10.956;2022-10-03T16:52:30;60.03;36.54;72.34;;
67900;Laerm;54700;51.796;10.956;2022-10-03T16:55:12;61.33;36.81;73.23;;
67900;Laerm;54700;51.796;10.956;2022-10-03T16:57:42;60.85;38.29;71.01;;
67900;Laerm;54700;51.796;10.956;2022-10-03T17:00:16;58.52;36.07;70.82;;
67900;Laerm;54700;51.796;10.956;2022-10-03T17:02:47;61.30;33.59;72.06;;
67900;Laerm;54700;51.796;10.956;2022-10-03T17:05:15;61.36;41.44;73.74;;
67900;Laerm;54700;51.796;10.956;2022-10-03T17:07:50;59.84;36.69;70.31;;
67900;Laerm;54700;51.796;10.956;2022-10-03T17:10:31;57.50;32.76;68.28;;
67900;Laerm;54700;51.796;10.956;2022-10-03T17:13:01;61.98;35.71;73.72;;
67900;Laerm;54700;51.796;10.956;2022-10-03T17:15:34;56.59;34.99;68.41;;
67900;Laerm;54700;51.796;10.956;2022-10-03T17:18:13;56.25;34.97;69.21;;
67900;Laerm;54700;51.796;10.956;2022-10-03T17:20:54;59.70;34.08;69.76;;
67900;Laerm;54700;51.796;10.956;2022-10-03T17:23:31;60.67;33.04;76.32;;
67900;Laerm;54700;51.796;10.956;2022-10-03T17:26:06;58.82;34.99;69.51;;
67900;Laerm;54700;51.796;10.956;2022-10-03T17:28:43;60.49;36.98;71.70;;
67900;Laerm;54700;51.796;10.956;2022-10-03T17:31:27;59.03;35.33;69.85;;